createdAt,value
2023-08-14T00:02:46.750Z,20.70
2023-08-14T00:07:48.546Z,20.60
2023-08-14T00:12:50.389Z,20.60
2023-08-14T00:17:52.432Z,20.50
2023-08-14T00:22:54.240Z,20.40
2023-08-14T00:27:56.149Z,20.30
2023-08-14T00:32:58.065Z,20.30
2023-08-14T00:38:02.448Z,20.20
2023-08-14T00:43:04.459Z,20.20
2023-08-14T00:48:08.557Z,20.10
2023-08-14T00:53:11.639Z,20.00
2023-08-14T00:58:14.302Z,19.90
2023-08-14T01:03:17.865Z,19.80
2023-08-14T01:08:19.866Z,19.80
2023-08-14T01:13:24.514Z,19.80
2023-08-14T01:18:28.057Z,19.60
2023-08-14T01:23:36.669Z,19.60
2023-08-14T01:28:39.940Z,19.60
2023-08-14T01:33:41.781Z,19.50
2023-08-14T01:39:04.128Z,19.50
2023-08-14T01:44:10.175Z,19.40
2023-08-14T01:49:14.751Z,19.40
2023-08-14T01:54:16.646Z,19.30
2023-08-14T01:59:18.577Z,19.30
2023-08-14T02:04:20.480Z,19.30
2023-08-14T02:09:22.340Z,19.30
2023-08-14T02:14:25.953Z,19.20
2023-08-14T02:19:27.837Z,19.20
2023-08-14T02:24:29.686Z,19.20
2023-08-14T02:29:31.659Z,19.20
2023-08-14T02:34:33.691Z,19.10
2023-08-14T02:39:35.530Z,19.10
2023-08-14T02:44:37.882Z,19.10
2023-08-14T02:49:39.872Z,19.10
2023-08-14T02:54:41.758Z,19.00
2023-08-14T02:59:43.776Z,19.00
2023-08-14T03:04:45.582Z,18.90
2023-08-14T03:09:47.529Z,18.90
2023-08-14T03:14:49.375Z,18.80
2023-08-14T03:19:51.202Z,18.80
2023-08-14T03:24:53.065Z,18.70
2023-08-14T03:29:54.998Z,18.70
2023-08-14T03:34:57.523Z,18.60
2023-08-14T03:40:00.269Z,18.60
2023-08-14T03:45:04.743Z,18.50
2023-08-14T03:50:07.050Z,18.50
2023-08-14T03:55:09.747Z,18.50
2023-08-14T04:00:11.988Z,18.50
2023-08-14T04:05:17.905Z,18.50
2023-08-14T04:10:19.895Z,18.40
2023-08-14T04:15:22.257Z,18.40
2023-08-14T04:20:24.149Z,18.40
2023-08-14T04:25:26.093Z,18.30
2023-08-14T04:30:27.928Z,18.40
2023-08-14T04:35:29.875Z,18.30
2023-08-14T04:40:33.342Z,18.40
2023-08-14T04:45:35.854Z,18.40
2023-08-14T04:50:37.809Z,18.40
2023-08-14T04:55:39.826Z,18.40
2023-08-14T05:00:41.803Z,18.40
2023-08-14T05:05:52.428Z,18.30
2023-08-14T05:10:55.932Z,18.30
2023-08-14T05:16:07.056Z,18.30
2023-08-14T05:21:11.944Z,18.30
2023-08-14T05:26:13.845Z,18.40
2023-08-14T05:31:15.675Z,18.50
2023-08-14T05:36:17.599Z,18.50
2023-08-14T05:41:20.188Z,18.70
2023-08-14T05:46:25.109Z,18.70
2023-08-14T05:51:27.122Z,18.90
2023-08-14T05:56:28.988Z,19.10
2023-08-14T06:01:30.910Z,19.10
2023-08-14T06:06:32.816Z,19.20
2023-08-14T06:11:36.735Z,19.40
2023-08-14T06:16:38.915Z,19.60
2023-08-14T06:21:40.688Z,19.80
2023-08-14T06:26:42.497Z,20.10
2023-08-14T06:31:44.327Z,20.40
2023-08-14T06:36:46.224Z,20.80
2023-08-14T06:41:48.064Z,21.10
2023-08-14T06:46:53.103Z,21.50
2023-08-14T06:51:55.901Z,21.80
2023-08-14T06:56:57.815Z,22.20
2023-08-14T07:01:59.746Z,22.60
2023-08-14T07:07:01.626Z,22.80
2023-08-14T07:12:03.802Z,23.10
2023-08-14T07:17:05.729Z,23.30
2023-08-14T07:22:07.568Z,23.60
2023-08-14T07:27:09.396Z,24.00
2023-08-14T07:32:11.198Z,24.20
2023-08-14T07:37:13.433Z,24.60
2023-08-14T07:42:15.300Z,24.60
2023-08-14T07:47:17.074Z,24.70
2023-08-14T07:52:18.973Z,24.90
2023-08-14T07:57:21.413Z,25.20
2023-08-14T08:02:23.592Z,25.30
2023-08-14T08:07:26.041Z,25.30
2023-08-14T08:12:28.068Z,25.60
2023-08-14T08:17:30.018Z,26.00
2023-08-14T08:22:31.914Z,26.30
2023-08-14T08:27:35.991Z,26.40
2023-08-14T08:32:39.345Z,26.60
2023-08-14T08:37:42.609Z,26.80
2023-08-14T08:42:44.495Z,27.00
2023-08-14T08:47:49.274Z,27.30
2023-08-14T08:52:51.878Z,27.40
2023-08-14T08:57:55.588Z,27.50
2023-08-14T09:02:57.574Z,27.70
2023-08-14T09:07:59.465Z,28.00
2023-08-14T09:13:02.149Z,28.00
2023-08-14T09:18:04.188Z,28.10
2023-08-14T09:23:10.621Z,28.00
2023-08-14T09:28:13.141Z,28.10
2023-08-14T09:33:15.122Z,28.20
2023-08-14T09:38:17.007Z,28.40
2023-08-14T09:43:20.641Z,28.60
2023-08-14T09:48:23.062Z,28.80
2023-08-14T09:53:24.920Z,28.90
2023-08-14T09:58:26.865Z,29.00
2023-08-14T10:03:29.139Z,29.00
2023-08-14T10:08:34.655Z,29.10
2023-08-14T10:13:43.155Z,29.30
2023-08-14T10:18:47.595Z,29.30
2023-08-14T10:23:51.240Z,29.40
2023-08-14T10:28:54.391Z,29.30
2023-08-14T10:33:58.323Z,28.90
2023-08-14T10:39:18.771Z,28.80
2023-08-14T10:44:21.365Z,28.80
2023-08-14T10:49:23.319Z,28.90
2023-08-14T10:54:25.266Z,29.10
2023-08-14T10:59:32.819Z,29.20
2023-08-14T11:04:37.812Z,29.30
2023-08-14T11:09:40.828Z,29.40
2023-08-14T11:14:43.223Z,29.60
2023-08-14T11:19:45.087Z,29.60
2023-08-14T11:24:47.877Z,29.60
2023-08-14T11:29:53.483Z,29.70
2023-08-14T11:34:56.117Z,29.90
2023-08-14T11:40:03.599Z,30.00
2023-08-14T11:45:06.715Z,30.10
2023-08-14T11:50:09.083Z,30.10
2023-08-14T11:55:11.544Z,30.10
2023-08-14T12:00:17.756Z,29.90
2023-08-14T12:05:23.073Z,29.70
2023-08-14T12:10:24.951Z,29.90
2023-08-14T12:15:26.829Z,29.80
2023-08-14T12:20:32.593Z,29.80
2023-08-14T12:25:34.478Z,29.90
2023-08-14T12:30:36.274Z,30.00
2023-08-14T12:35:38.135Z,30.10
2023-08-14T12:40:40.102Z,30.10
2023-08-14T12:45:42.899Z,30.30
2023-08-14T12:50:44.716Z,30.50
2023-08-14T12:55:54.767Z,30.50
2023-08-14T13:01:05.892Z,30.60
2023-08-14T13:06:08.415Z,30.50
2023-08-14T13:11:10.223Z,30.60
2023-08-14T13:16:12.316Z,30.70
2023-08-14T13:21:14.208Z,30.50
2023-08-14T13:31:21.548Z,30.40
2023-08-14T13:36:23.654Z,30.20
2023-08-14T13:41:25.474Z,30.00
2023-08-14T13:46:27.398Z,29.90
2023-08-14T13:51:29.426Z,29.80
2023-08-14T13:56:31.472Z,29.80
2023-08-14T14:01:33.438Z,29.80
2023-08-14T14:06:35.354Z,29.70
2023-08-14T14:11:37.193Z,29.60
2023-08-14T14:16:53.530Z,29.50
2023-08-14T14:22:00.180Z,29.50
2023-08-14T14:27:03.158Z,29.30
2023-08-14T14:32:05.219Z,29.30
2023-08-14T14:37:07.111Z,29.10
2023-08-14T14:42:09.025Z,29.00
2023-08-14T14:47:10.879Z,28.80
2023-08-14T14:52:12.687Z,28.60
2023-08-14T14:57:14.633Z,28.40
2023-08-14T15:02:28.665Z,28.20
2023-08-14T15:07:31.908Z,28.00
2023-08-14T15:12:33.722Z,27.80
2023-08-14T15:17:38.976Z,27.70
2023-08-14T15:22:45.398Z,27.60
2023-08-14T15:27:47.338Z,27.60
2023-08-14T15:32:49.302Z,27.50
2023-08-14T15:37:51.487Z,27.40
2023-08-14T15:42:53.486Z,27.40
2023-08-14T15:47:59.370Z,27.40
2023-08-14T15:53:01.222Z,27.30
2023-08-14T15:58:03.162Z,27.30
2023-08-14T16:03:07.718Z,27.00
2023-08-14T16:08:09.687Z,26.80
2023-08-14T16:13:11.660Z,26.80
2023-08-14T16:18:17.398Z,26.70
2023-08-14T16:23:22.824Z,26.60
2023-08-14T16:28:24.590Z,26.50
2023-08-14T16:33:26.381Z,26.50
2023-08-14T16:38:28.251Z,26.40
2023-08-14T16:43:30.154Z,26.30
2023-08-14T16:48:32.070Z,26.10
2023-08-14T16:53:34.122Z,25.90
2023-08-14T16:58:36.010Z,25.80
2023-08-14T17:03:38.056Z,25.70
2023-08-14T17:08:39.974Z,25.50
2023-08-14T17:13:42.053Z,25.40
2023-08-14T17:18:44.041Z,25.00
2023-08-14T17:23:45.851Z,24.90
2023-08-14T17:28:47.969Z,24.80
2023-08-14T17:33:49.850Z,24.70
2023-08-14T17:38:51.730Z,24.60
2023-08-14T17:43:53.575Z,24.60
2023-08-14T17:48:55.438Z,24.60
2023-08-14T17:53:57.262Z,24.40
2023-08-14T17:58:59.977Z,24.30
2023-08-14T18:04:01.808Z,24.30
2023-08-14T18:09:04.998Z,24.30
2023-08-14T18:14:07.279Z,24.10
2023-08-14T18:19:28.009Z,24.00
2023-08-14T18:24:31.116Z,24.00
2023-08-14T18:29:33.066Z,23.70
2023-08-14T18:34:34.925Z,23.40
2023-08-14T18:39:36.854Z,23.30
2023-08-14T18:44:38.733Z,23.40
2023-08-14T18:49:45.704Z,23.30
2023-08-14T18:54:47.823Z,23.20
2023-08-14T18:59:49.685Z,23.20
2023-08-14T19:04:52.029Z,23.10
2023-08-14T19:09:53.920Z,23.00
2023-08-14T19:14:55.807Z,23.00
2023-08-14T19:19:57.623Z,22.90
2023-08-14T19:24:59.565Z,22.80
2023-08-14T19:30:01.401Z,22.80
2023-08-14T19:35:03.317Z,22.80
2023-08-14T19:40:09.980Z,22.70
2023-08-14T19:45:12.333Z,22.80
2023-08-14T19:50:15.003Z,22.70
2023-08-14T19:55:16.955Z,22.60
2023-08-14T20:00:18.808Z,22.60
2023-08-14T20:05:20.620Z,22.40
2023-08-14T20:10:22.487Z,22.40
2023-08-14T20:15:24.422Z,22.20
2023-08-14T20:20:26.263Z,22.10
2023-08-14T20:25:28.201Z,22.00
2023-08-14T20:30:30.665Z,22.00
2023-08-14T20:35:38.115Z,22.00
2023-08-14T20:40:40.680Z,22.00
2023-08-14T20:45:42.476Z,21.90
2023-08-14T20:50:48.242Z,21.80
2023-08-14T20:55:50.130Z,21.60
2023-08-14T21:00:52.052Z,21.70
2023-08-14T21:05:55.134Z,21.70
2023-08-14T21:10:58.071Z,21.70
2023-08-14T21:16:00.171Z,21.80
2023-08-14T21:21:01.991Z,21.70
2023-08-14T21:26:03.932Z,21.80
2023-08-14T21:31:05.786Z,21.80
2023-08-14T21:36:07.704Z,21.80
2023-08-14T21:41:10.054Z,21.60
2023-08-14T21:46:12.007Z,21.50
2023-08-14T21:51:14.141Z,21.60
2023-08-14T21:56:16.044Z,21.60
2023-08-14T22:01:18.067Z,21.50
2023-08-14T22:06:20.030Z,21.40
2023-08-14T22:11:21.861Z,21.50
2023-08-14T22:16:24.113Z,21.50
2023-08-14T22:21:26.012Z,21.40
2023-08-14T22:26:27.866Z,21.50
2023-08-14T22:31:29.992Z,21.40
2023-08-14T22:36:31.808Z,21.30
2023-08-14T22:41:33.590Z,21.30
2023-08-14T22:46:35.492Z,21.20
2023-08-14T22:51:37.528Z,21.10
2023-08-14T22:56:39.361Z,21.10
2023-08-14T23:01:41.235Z,21.10
2023-08-14T23:06:43.131Z,21.00
2023-08-14T23:11:45.019Z,21.00
2023-08-14T23:16:46.823Z,21.10
2023-08-14T23:21:48.634Z,21.10
2023-08-14T23:26:50.418Z,21.10
2023-08-14T23:31:52.247Z,21.10
2023-08-14T23:36:54.055Z,21.00
2023-08-14T23:41:56.016Z,20.90
2023-08-14T23:46:57.877Z,20.70
2023-08-14T23:51:59.727Z,20.60
2023-08-14T23:57:01.556Z,20.60
